createdAt,value
2023-02-13T00:00:29.141Z,56.86
2023-02-13T00:02:56.984Z,56.88
2023-02-13T00:05:24.876Z,56.77
2023-02-13T00:07:52.738Z,56.60
2023-02-13T00:10:20.745Z,56.66
2023-02-13T00:12:48.612Z,56.54
2023-02-13T00:15:16.499Z,56.51
2023-02-13T00:17:45.752Z,56.49
2023-02-13T00:20:14.041Z,56.58
2023-02-13T00:22:41.990Z,56.45
2023-02-13T00:25:13.889Z,56.41
2023-02-13T00:27:41.792Z,56.34
2023-02-13T00:30:10.546Z,56.47
2023-02-13T00:32:38.403Z,56.38
2023-02-13T00:35:08.139Z,56.34
2023-02-13T00:37:36.029Z,56.37
2023-02-13T00:40:03.861Z,56.34
2023-02-13T00:42:31.713Z,56.31
2023-02-13T00:44:59.694Z,56.45
2023-02-13T00:47:27.606Z,56.41
2023-02-13T00:49:55.524Z,56.37
2023-02-13T00:52:24.833Z,56.27
2023-02-13T00:54:52.691Z,56.26
2023-02-13T00:57:20.513Z,56.33
2023-02-13T00:59:49.696Z,56.18
2023-02-13T01:02:18.415Z,56.23
2023-02-13T01:04:46.334Z,56.18
2023-02-13T01:07:15.822Z,56.34
2023-02-13T01:09:45.965Z,56.23
2023-02-13T01:12:13.857Z,56.17
2023-02-13T01:14:41.743Z,56.16
2023-02-13T01:17:09.606Z,56.26
2023-02-13T01:19:37.483Z,56.05
2023-02-13T01:22:05.384Z,56.24
2023-02-13T01:24:34.138Z,56.10
2023-02-13T01:27:03.359Z,56.12
2023-02-13T01:29:31.256Z,56.16
2023-02-13T01:31:59.177Z,56.07
2023-02-13T01:34:27.083Z,56.18
2023-02-13T01:36:54.970Z,56.06
2023-02-13T01:39:22.916Z,56.12
2023-02-13T01:41:50.983Z,56.16
2023-02-13T01:44:54.734Z,56.17
2023-02-13T01:47:26.825Z,56.22
2023-02-13T01:50:00.766Z,56.29
2023-02-13T01:52:28.683Z,56.18
2023-02-13T01:54:56.539Z,56.24
2023-02-13T01:57:24.840Z,56.34
2023-02-13T01:59:55.301Z,56.30
2023-02-13T02:02:23.277Z,56.40
2023-02-13T02:04:51.218Z,56.30
2023-02-13T02:07:20.318Z,56.28
2023-02-13T02:09:48.200Z,56.15
2023-02-13T02:12:21.232Z,56.16
2023-02-13T02:14:49.105Z,56.20
2023-02-13T02:17:18.397Z,56.27
2023-02-13T02:19:50.128Z,56.20
2023-02-13T02:22:36.230Z,56.42
2023-02-13T02:25:39.690Z,56.29
2023-02-13T02:28:17.993Z,56.30
2023-02-13T02:31:12.687Z,56.45
2023-02-13T02:33:49.667Z,56.61
2023-02-13T02:36:24.139Z,56.46
2023-02-13T02:39:04.886Z,56.49
2023-02-13T02:41:45.208Z,56.59
2023-02-13T02:44:27.484Z,56.52
2023-02-13T02:47:17.558Z,56.69
2023-02-13T02:50:02.173Z,56.69
2023-02-13T02:52:40.540Z,56.73
2023-02-13T02:55:11.657Z,56.52
2023-02-13T02:57:58.848Z,56.56
2023-02-13T03:00:44.825Z,56.69
2023-02-13T03:03:32.421Z,56.54
2023-02-13T03:06:14.233Z,56.61
2023-02-13T03:09:06.058Z,56.67
2023-02-13T03:11:51.305Z,56.54
2023-02-13T03:14:20.827Z,56.69
2023-02-13T03:17:06.124Z,56.59
2023-02-13T03:20:02.548Z,56.69
2023-02-13T03:22:38.252Z,56.71
2023-02-13T03:25:12.128Z,56.74
2023-02-13T03:28:02.733Z,56.64
2023-02-13T03:30:35.830Z,56.80
2023-02-13T03:33:10.683Z,56.86
2023-02-13T03:35:57.813Z,56.76
2023-02-13T03:38:29.217Z,56.80
2023-02-13T03:41:16.551Z,56.82
2023-02-13T03:43:48.659Z,56.80
2023-02-13T03:46:16.855Z,56.86
2023-02-13T03:49:01.924Z,56.79
2023-02-13T03:51:32.216Z,56.88
2023-02-13T03:54:02.431Z,56.86
2023-02-13T03:56:47.589Z,57.04
2023-02-13T03:59:19.929Z,56.76
2023-02-13T04:01:51.693Z,57.03
2023-02-13T04:04:26.879Z,57.06
2023-02-13T04:06:56.651Z,57.15
2023-02-13T04:09:26.029Z,57.21
2023-02-13T04:11:56.881Z,57.26
2023-02-13T04:14:26.512Z,57.39
2023-02-13T04:16:55.763Z,57.34
2023-02-13T04:19:23.729Z,57.34
2023-02-13T04:21:56.295Z,57.25
2023-02-13T04:24:25.788Z,57.33
2023-02-13T04:26:53.682Z,57.52
2023-02-13T04:29:22.133Z,57.34
2023-02-13T04:31:50.166Z,57.58
2023-02-13T04:34:18.175Z,57.53
2023-02-13T04:36:46.044Z,57.50
2023-02-13T04:39:14.057Z,57.48
2023-02-13T04:41:43.260Z,57.57
2023-02-13T04:44:11.145Z,57.52
2023-02-13T04:46:39.018Z,57.41
2023-02-13T04:49:06.918Z,57.54
2023-02-13T04:51:34.813Z,57.72
2023-02-13T04:54:02.672Z,57.57
2023-02-13T04:56:30.575Z,57.59
2023-02-13T04:58:59.841Z,57.80
2023-02-13T05:01:27.833Z,57.65
2023-02-13T05:03:55.771Z,57.57
2023-02-13T05:06:23.647Z,57.75
2023-02-13T05:08:51.498Z,57.68
2023-02-13T05:11:19.354Z,57.73
2023-02-13T05:13:50.254Z,57.72
2023-02-13T05:16:19.523Z,57.84
2023-02-13T05:18:47.383Z,57.74
2023-02-13T05:21:32.700Z,57.81
2023-02-13T05:24:01.306Z,57.92
2023-02-13T05:26:29.210Z,57.98
2023-02-13T05:29:14.729Z,57.97
2023-02-13T05:31:44.106Z,57.86
2023-02-13T05:34:12.024Z,57.78
2023-02-13T05:36:40.010Z,57.83
2023-02-13T05:39:10.963Z,57.87
2023-02-13T05:41:38.866Z,57.84
2023-02-13T05:44:06.788Z,57.87
2023-02-13T05:46:34.765Z,57.92
2023-02-13T05:49:04.932Z,57.90
2023-02-13T05:51:32.867Z,58.02
2023-02-13T05:54:00.762Z,58.07
2023-02-13T05:56:28.706Z,57.91
2023-02-13T05:58:57.152Z,58.00
2023-02-13T06:01:25.180Z,58.04
2023-02-13T06:03:53.144Z,58.01
2023-02-13T06:06:22.818Z,57.97
2023-02-13T06:08:50.739Z,58.02
2023-02-13T06:11:19.857Z,58.02
2023-02-13T06:13:47.838Z,58.09
2023-02-13T06:16:15.762Z,58.12
2023-02-13T06:18:43.649Z,58.08
2023-02-13T06:21:11.725Z,58.17
2023-02-13T06:23:41.046Z,58.29
2023-02-13T06:26:09.500Z,58.28
2023-02-13T06:28:37.501Z,58.20
2023-02-13T06:31:05.760Z,58.31
2023-02-13T06:33:33.681Z,58.21
2023-02-13T06:36:01.593Z,58.13
2023-02-13T06:38:29.474Z,58.26
2023-02-13T06:41:00.928Z,58.31
2023-02-13T06:43:28.972Z,58.32
2023-02-13T06:45:56.876Z,58.36
2023-02-13T06:48:24.745Z,58.31
2023-02-13T06:50:52.736Z,58.40
2023-02-13T06:53:24.607Z,58.26
2023-02-13T06:55:53.695Z,58.19
2023-02-13T06:58:23.163Z,58.23
2023-02-13T07:00:51.188Z,58.13
2023-02-13T07:03:19.080Z,58.17
2023-02-13T07:05:46.982Z,58.07
2023-02-13T07:08:14.896Z,58.03
2023-02-13T07:10:42.881Z,58.05
2023-02-13T07:13:11.070Z,57.96
2023-02-13T07:15:40.428Z,57.95
2023-02-13T07:18:08.356Z,57.94
2023-02-13T07:20:36.244Z,57.90
2023-02-13T07:23:05.060Z,57.76
2023-02-13T07:25:33.102Z,57.74
2023-02-13T07:28:02.764Z,57.78
2023-02-13T07:30:31.378Z,57.81
2023-02-13T07:33:01.969Z,57.86
2023-02-13T07:35:29.907Z,57.94
2023-02-13T07:37:57.852Z,57.92
2023-02-13T07:40:25.726Z,57.98
2023-02-13T07:42:53.594Z,58.01
2023-02-13T07:45:21.514Z,57.93
2023-02-13T07:47:49.448Z,58.15
2023-02-13T07:50:19.167Z,58.27
2023-02-13T07:52:56.502Z,58.57
2023-02-13T07:55:24.429Z,58.49
2023-02-13T07:57:52.296Z,58.61
2023-02-13T08:00:21.261Z,58.65
2023-02-13T08:02:49.408Z,58.59
2023-02-13T08:05:18.755Z,58.50
2023-02-13T08:07:46.653Z,58.63
2023-02-13T08:10:32.804Z,58.79
2023-02-13T08:13:00.802Z,58.67
2023-02-13T08:15:28.752Z,58.92
2023-02-13T08:17:56.624Z,58.86
2023-02-13T08:20:26.152Z,58.81
2023-02-13T08:22:54.046Z,58.69
2023-02-13T08:25:21.938Z,58.78
2023-02-13T08:27:50.154Z,58.75
2023-02-13T08:30:20.149Z,58.60
2023-02-13T08:32:54.237Z,58.62
2023-02-13T08:35:22.941Z,58.49
2023-02-13T08:37:52.272Z,58.50
2023-02-13T08:40:20.357Z,58.67
2023-02-13T08:42:49.502Z,58.38
2023-02-13T08:45:17.584Z,58.44
2023-02-13T08:47:45.510Z,58.27
2023-02-13T08:50:13.556Z,58.25
2023-02-13T08:52:41.445Z,58.17
2023-02-13T08:55:10.923Z,58.10
2023-02-13T08:57:38.884Z,58.17
2023-02-13T09:00:08.262Z,58.21
2023-02-13T09:02:36.200Z,58.02
2023-02-13T09:05:04.369Z,58.03
2023-02-13T09:07:32.372Z,57.86
2023-02-13T09:10:00.275Z,57.87
2023-02-13T09:12:29.753Z,57.83
2023-02-13T09:14:57.671Z,57.95
2023-02-13T09:17:25.745Z,57.90
2023-02-13T09:19:53.716Z,57.76
2023-02-13T09:22:21.678Z,57.73
2023-02-13T09:24:49.883Z,57.76
2023-02-13T09:27:17.906Z,57.46
2023-02-13T09:29:47.387Z,57.44
2023-02-13T09:32:16.081Z,57.38
2023-02-13T09:34:44.040Z,57.30
2023-02-13T09:37:11.936Z,57.18
2023-02-13T09:39:39.978Z,57.14
2023-02-13T09:42:09.070Z,56.86
2023-02-13T09:44:39.515Z,56.87
2023-02-13T09:47:13.189Z,56.63
2023-02-13T09:49:42.486Z,56.51
2023-02-13T09:52:10.378Z,56.58
2023-02-13T09:54:38.280Z,56.49
2023-02-13T09:57:09.317Z,56.12
2023-02-13T09:59:45.032Z,56.14
2023-02-13T10:02:24.094Z,55.86
2023-02-13T10:04:58.160Z,55.72
2023-02-13T10:07:28.390Z,55.12
2023-02-13T10:09:59.014Z,54.73
2023-02-13T10:12:32.007Z,54.82
2023-02-13T10:15:05.757Z,54.50
2023-02-13T10:17:36.576Z,54.61
2023-02-13T10:20:08.446Z,54.51
2023-02-13T10:22:38.761Z,54.33
2023-02-13T10:25:09.427Z,54.23
2023-02-13T10:27:39.718Z,54.05
2023-02-13T10:30:12.886Z,53.91
2023-02-13T10:32:49.008Z,53.66
2023-02-13T10:35:23.495Z,53.12
2023-02-13T10:37:53.343Z,52.97
2023-02-13T10:40:21.592Z,52.81
2023-02-13T10:42:54.015Z,52.80
2023-02-13T10:45:46.948Z,52.56
2023-02-13T10:48:32.644Z,52.06
2023-02-13T10:51:02.899Z,51.45
2023-02-13T10:53:36.959Z,51.33
2023-02-13T10:56:19.716Z,51.36
2023-02-13T10:58:55.394Z,50.97
2023-02-13T11:01:25.612Z,50.75
2023-02-13T11:04:07.037Z,51.56
2023-02-13T11:06:36.046Z,52.99
2023-02-13T11:09:04.109Z,53.73
2023-02-13T11:11:33.165Z,54.17
2023-02-13T11:14:10.026Z,53.47
2023-02-13T11:16:50.709Z,52.58
2023-02-13T11:19:21.496Z,52.68
2023-02-13T11:21:56.864Z,51.46
2023-02-13T11:24:25.585Z,50.02
2023-02-13T11:26:55.166Z,49.51
2023-02-13T11:29:25.536Z,48.52
2023-02-13T11:32:07.427Z,48.52
2023-02-13T11:34:36.819Z,47.92
2023-02-13T11:37:25.441Z,47.85
2023-02-13T11:39:54.409Z,47.25
2023-02-13T11:42:26.304Z,46.64
2023-02-13T11:44:55.800Z,45.98
2023-02-13T11:47:35.685Z,44.84
2023-02-13T11:50:05.825Z,45.60
2023-02-13T11:52:36.808Z,45.33
2023-02-13T11:55:06.045Z,44.40
2023-02-13T11:57:34.625Z,43.64
2023-02-13T12:00:04.001Z,42.66
2023-02-13T12:02:32.646Z,43.26
2023-02-13T12:07:56.519Z,44.56
2023-02-13T12:10:25.302Z,44.92
2023-02-13T12:12:55.704Z,44.52
2023-02-13T12:15:25.437Z,43.93
2023-02-13T12:18:00.357Z,43.70
2023-02-13T12:20:28.652Z,43.35
2023-02-13T12:23:02.505Z,42.84
2023-02-13T12:25:40.657Z,42.79
2023-02-13T12:28:14.910Z,42.11
2023-02-13T12:31:11.852Z,41.91
2023-02-13T12:33:55.204Z,41.38
2023-02-13T12:36:23.330Z,41.02
2023-02-13T12:39:01.734Z,40.32
2023-02-13T12:41:31.693Z,39.42
2023-02-13T12:44:29.261Z,39.18
2023-02-13T12:47:03.161Z,39.21
2023-02-13T12:49:49.862Z,39.05
2023-02-13T12:52:31.861Z,38.47
2023-02-13T12:55:12.609Z,38.46
2023-02-13T12:57:46.732Z,38.68
2023-02-13T13:00:26.566Z,37.81
2023-02-13T13:03:27.310Z,37.69
2023-02-13T13:06:11.749Z,37.82
2023-02-13T13:09:01.244Z,37.36
2023-02-13T13:11:44.279Z,37.05
2023-02-13T13:14:15.692Z,37.20
2023-02-13T13:16:48.422Z,36.68
2023-02-13T13:19:25.458Z,36.72
2023-02-13T13:21:56.169Z,36.71
2023-02-13T13:24:30.320Z,36.19
2023-02-13T13:26:59.817Z,35.08
2023-02-13T13:29:31.668Z,34.77
2023-02-13T13:32:02.341Z,35.04
2023-02-13T13:34:31.791Z,35.32
2023-02-13T13:37:02.380Z,34.94
2023-02-13T13:39:38.516Z,34.31
2023-02-13T13:42:11.524Z,34.55
2023-02-13T13:44:52.739Z,34.06
2023-02-13T13:47:27.951Z,34.28
2023-02-13T13:49:56.306Z,34.08
2023-02-13T13:52:26.713Z,33.95
2023-02-13T13:55:02.575Z,33.89
2023-02-13T13:58:01.806Z,33.52
2023-02-13T14:00:30.876Z,33.53
2023-02-13T14:03:32.161Z,33.64
2023-02-13T14:06:08.093Z,33.95
2023-02-13T14:08:58.592Z,33.97
2023-02-13T14:11:28.731Z,34.02
2023-02-13T14:13:58.397Z,33.10
2023-02-13T14:16:39.767Z,32.73
2023-02-13T14:19:07.987Z,33.13
2023-02-13T14:21:35.932Z,32.50
2023-02-13T14:24:06.388Z,32.65
2023-02-13T14:26:38.382Z,32.85
2023-02-13T14:29:23.748Z,32.46
2023-02-13T14:32:05.799Z,31.74
2023-02-13T14:34:34.621Z,32.46
2023-02-13T14:37:18.909Z,32.36
2023-02-13T14:39:47.056Z,32.58
2023-02-13T14:42:24.579Z,32.67
2023-02-13T14:44:54.514Z,32.80
2023-02-13T14:47:23.976Z,32.34
2023-02-13T14:49:51.985Z,32.58
2023-02-13T14:52:22.067Z,31.97
2023-02-13T14:54:50.776Z,32.28
2023-02-13T14:57:19.480Z,31.79
2023-02-13T14:59:48.366Z,31.92
2023-02-13T15:02:23.653Z,32.62
2023-02-13T15:04:55.021Z,32.65
2023-02-13T15:07:24.733Z,32.70
2023-02-13T15:09:54.419Z,32.60
2023-02-13T15:12:26.991Z,32.78
2023-02-13T15:14:54.942Z,32.87
2023-02-13T15:17:27.128Z,32.85
2023-02-13T15:19:55.657Z,33.06
2023-02-13T15:22:28.770Z,33.33
2023-02-13T15:24:56.679Z,33.50
2023-02-13T15:27:27.054Z,34.15
2023-02-13T15:29:59.489Z,34.58
2023-02-13T15:32:33.940Z,35.85
2023-02-13T15:35:01.991Z,36.28
2023-02-13T15:37:31.147Z,37.92
2023-02-13T15:40:24.029Z,38.32
2023-02-13T15:42:52.158Z,38.51
2023-02-13T15:45:20.171Z,39.95
2023-02-13T15:47:49.488Z,40.36
2023-02-13T15:50:25.289Z,40.45
2023-02-13T15:52:55.930Z,40.92
2023-02-13T15:55:27.084Z,41.77
2023-02-13T15:57:55.914Z,41.64
2023-02-13T16:00:26.157Z,42.05
2023-02-13T16:03:00.712Z,42.61
2023-02-13T16:05:39.382Z,43.01
2023-02-13T16:08:35.424Z,43.14
2023-02-13T16:11:25.206Z,43.46
2023-02-13T16:14:01.331Z,43.99
2023-02-13T16:16:29.528Z,44.34
2023-02-13T16:18:58.847Z,44.29
2023-02-13T16:21:27.484Z,44.42
2023-02-13T16:23:58.006Z,44.70
2023-02-13T16:26:25.880Z,44.95
2023-02-13T16:28:55.830Z,45.38
2023-02-13T16:31:27.891Z,45.61
2023-02-13T16:33:56.024Z,45.85
2023-02-13T16:36:31.463Z,46.17
2023-02-13T16:39:02.000Z,46.03
2023-02-13T16:41:30.959Z,46.31
2023-02-13T16:43:58.867Z,46.48
2023-02-13T16:46:29.689Z,46.77
2023-02-13T16:49:24.552Z,46.71
2023-02-13T16:51:56.645Z,46.88
2023-02-13T16:54:28.208Z,47.15
2023-02-13T16:56:57.114Z,47.37
2023-02-13T16:59:29.876Z,47.22
2023-02-13T17:02:28.102Z,47.61
2023-02-13T17:04:56.865Z,47.83
2023-02-13T17:07:27.466Z,47.70
2023-02-13T17:09:57.224Z,48.03
2023-02-13T17:12:25.090Z,48.21
2023-02-13T17:14:53.018Z,48.20
2023-02-13T17:17:22.262Z,48.54
2023-02-13T17:19:50.414Z,48.73
2023-02-13T17:22:35.968Z,49.19
2023-02-13T17:25:05.254Z,49.23
2023-02-13T17:27:33.174Z,49.29
2023-02-13T17:30:01.628Z,49.40
2023-02-13T17:32:30.032Z,49.53
2023-02-13T17:34:57.998Z,49.72
2023-02-13T17:37:26.580Z,49.73
2023-02-13T17:39:55.983Z,49.79
2023-02-13T17:42:25.404Z,50.12
2023-02-13T17:44:53.447Z,50.14
2023-02-13T17:47:21.527Z,50.25
2023-02-13T17:49:49.976Z,50.42
2023-02-13T17:52:19.453Z,50.62
2023-02-13T17:54:47.298Z,50.93
2023-02-13T17:57:17.796Z,50.77
2023-02-13T17:59:46.301Z,50.95
2023-02-13T18:02:15.895Z,50.95
2023-02-13T18:04:43.911Z,51.01
2023-02-13T18:07:12.618Z,50.91
2023-02-13T18:09:41.145Z,51.11
2023-02-13T18:12:10.188Z,51.32
2023-02-13T18:14:39.505Z,51.37
2023-02-13T18:17:07.582Z,51.66
2023-02-13T18:19:35.481Z,51.64
2023-02-13T18:22:03.393Z,51.61
2023-02-13T18:24:31.757Z,51.93
2023-02-13T18:26:59.947Z,51.97
2023-02-13T18:29:27.894Z,52.36
2023-02-13T18:31:57.943Z,52.58
2023-02-13T18:34:26.056Z,52.40
2023-02-13T18:36:53.957Z,52.51
2023-02-13T18:39:21.893Z,52.88
2023-02-13T18:41:49.968Z,52.82
2023-02-13T18:44:28.104Z,52.99
2023-02-13T18:46:58.114Z,53.27
2023-02-13T18:49:25.976Z,53.27
2023-02-13T18:51:53.884Z,53.37
2023-02-13T18:54:22.308Z,53.48
2023-02-13T18:56:50.181Z,53.70
2023-02-13T18:59:19.198Z,53.87
2023-02-13T19:01:47.179Z,53.79
2023-02-13T19:04:16.899Z,54.12
2023-02-13T19:06:45.167Z,53.97
2023-02-13T19:09:13.250Z,54.14
2023-02-13T19:11:41.126Z,54.29
2023-02-13T19:14:09.010Z,54.24
2023-02-13T19:16:37.006Z,54.27
2023-02-13T19:19:06.251Z,54.33
2023-02-13T19:21:36.597Z,54.43
2023-02-13T19:24:04.824Z,54.46
2023-02-13T19:26:32.822Z,54.50
2023-02-13T19:29:00.758Z,54.67
2023-02-13T19:31:32.646Z,54.65
2023-02-13T19:34:01.093Z,54.64
2023-02-13T19:36:30.108Z,54.59
2023-02-13T19:39:00.297Z,54.76
2023-02-13T19:41:29.049Z,54.89
2023-02-13T19:43:56.934Z,54.92
2023-02-13T19:46:25.799Z,54.76
2023-02-13T19:48:54.875Z,54.99
2023-02-13T19:51:30.069Z,54.96
2023-02-13T19:54:00.273Z,55.06
2023-02-13T19:56:28.439Z,55.23
2023-02-13T19:58:56.493Z,55.25
2023-02-13T20:01:25.539Z,55.35
2023-02-13T20:03:53.487Z,55.37
2023-02-13T20:06:22.785Z,55.27
2023-02-13T20:08:51.223Z,55.42
2023-02-13T20:11:21.499Z,55.51
2023-02-13T20:13:52.125Z,55.62
2023-02-13T20:16:20.444Z,55.66
2023-02-13T20:18:48.490Z,55.78
2023-02-13T20:21:17.344Z,55.85
2023-02-13T20:23:48.800Z,55.90
2023-02-13T20:26:17.363Z,56.01
2023-02-13T20:28:47.004Z,56.14
2023-02-13T20:31:15.973Z,56.37
2023-02-13T20:33:48.766Z,56.40
2023-02-13T20:36:18.123Z,56.34
2023-02-13T20:38:46.023Z,56.45
2023-02-13T20:41:15.092Z,56.32
2023-02-13T20:43:43.034Z,56.50
2023-02-13T20:46:13.433Z,56.58
2023-02-13T20:48:41.837Z,56.63
2023-02-13T20:51:11.559Z,56.83
2023-02-13T20:53:39.521Z,56.83
2023-02-13T20:56:10.651Z,56.79
2023-02-13T20:58:38.583Z,56.80
2023-02-13T21:01:13.949Z,56.88
2023-02-13T21:03:42.173Z,56.90
2023-02-13T21:06:10.656Z,56.97
2023-02-13T21:08:38.625Z,56.98
2023-02-13T21:11:07.405Z,57.11
2023-02-13T21:13:35.603Z,57.21
2023-02-13T21:16:08.478Z,57.33
2023-02-13T21:18:37.921Z,57.27
2023-02-13T21:21:06.128Z,57.18
2023-02-13T21:23:34.271Z,57.11
2023-02-13T21:26:03.118Z,57.07
2023-02-13T21:28:31.076Z,56.88
2023-02-13T21:30:59.294Z,56.97
2023-02-13T21:33:27.474Z,57.07
2023-02-13T21:36:02.487Z,57.17
2023-02-13T21:38:30.383Z,57.13
2023-02-13T21:41:05.264Z,56.95
2023-02-13T21:43:37.563Z,57.00
2023-02-13T21:46:09.692Z,56.96
2023-02-13T21:48:37.694Z,57.02
2023-02-13T21:51:10.725Z,56.95
2023-02-13T21:53:38.732Z,56.89
2023-02-13T21:56:07.844Z,56.94
2023-02-13T21:58:35.844Z,56.87
2023-02-13T22:01:04.293Z,57.10
2023-02-13T22:03:32.224Z,57.38
2023-02-13T22:06:00.144Z,57.65
2023-02-13T22:08:29.459Z,57.42
2023-02-13T22:10:58.383Z,57.20
2023-02-13T22:13:26.677Z,57.09
2023-02-13T22:16:00.585Z,57.03
2023-02-13T22:18:28.515Z,57.23
2023-02-13T22:20:56.613Z,57.34
2023-02-13T22:23:24.595Z,57.31
2023-02-13T22:25:53.847Z,57.30
2023-02-13T22:28:21.702Z,57.09
2023-02-13T22:30:49.727Z,57.22
2023-02-13T22:33:17.638Z,57.31
2023-02-13T22:35:45.516Z,57.43
2023-02-13T22:38:13.417Z,57.61
2023-02-13T22:40:41.329Z,57.63
2023-02-13T22:43:10.560Z,57.70
2023-02-13T22:45:39.981Z,57.71
2023-02-13T22:48:07.868Z,57.62
2023-02-13T22:50:35.669Z,57.47
2023-02-13T22:53:03.553Z,57.49
2023-02-13T22:55:31.475Z,57.39
2023-02-13T22:57:59.307Z,57.61
2023-02-13T23:00:28.663Z,57.86
2023-02-13T23:02:56.530Z,58.08
2023-02-13T23:05:24.430Z,58.08
2023-02-13T23:07:52.302Z,58.05
2023-02-13T23:10:20.388Z,58.14
2023-02-13T23:12:47.253Z,58.32
2023-02-13T23:15:15.451Z,58.43
2023-02-13T23:18:02.224Z,58.36
2023-02-13T23:20:30.092Z,58.69
2023-02-13T23:22:58.059Z,58.79
2023-02-13T23:25:26.009Z,58.77
2023-02-13T23:27:56.724Z,58.92
2023-02-13T23:30:24.838Z,58.78
2023-02-13T23:32:54.138Z,58.80
2023-02-13T23:35:22.001Z,58.80
2023-02-13T23:37:49.847Z,59.02
2023-02-13T23:40:17.882Z,58.98
2023-02-13T23:42:45.777Z,59.00
2023-02-13T23:45:13.640Z,59.05
2023-02-13T23:47:41.572Z,59.11
2023-02-13T23:50:11.351Z,59.25
2023-02-13T23:52:39.261Z,59.46
2023-02-13T23:55:07.524Z,59.51
2023-02-13T23:57:35.575Z,59.37
